sensor_id;sensor_type;location;lat;lon;timestamp;temperature;humidity
1367;DHT22;16877;48.810;9.282;2022-12-18T00:00:10;8.20;42.80
1367;DHT22;16877;48.810;9.282;2022-12-18T00:02:38;8.20;42.90
1367;DHT22;16877;48.810;9.282;2022-12-18T00:05:06;8.20;42.90
1367;DHT22;16877;48.810;9.282;2022-12-18T00:07:36;8.20;42.90
1367;DHT22;16877;48.810;9.282;2022-12-18T00:10:05;8.20;42.90
1367;DHT22;16877;48.810;9.282;2022-12-18T00:12:32;8.20;42.90
1367;DHT22;16877;48.810;9.282;2022-12-18T00:14:59;8.10;42.90
1367;DHT22;16877;48.810;9.282;2022-12-18T00:17:28;8.10;43.00
1367;DHT22;16877;48.810;9.282;2022-12-18T00:19:59;8.10;43.00
1367;DHT22;16877;48.810;9.282;2022-12-18T00:22:27;8.10;43.00
1367;DHT22;16877;48.810;9.282;2022-12-18T00:24:56;8.10;42.90
1367;DHT22;16877;48.810;9.282;2022-12-18T00:27:26;8.10;42.90
1367;DHT22;16877;48.810;9.282;2022-12-18T00:29:54;8.10;42.80
1367;DHT22;16877;48.810;9.282;2022-12-18T00:32:21;8.10;43.30
1367;DHT22;16877;48.810;9.282;2022-12-18T00:34:49;8.10;42.70
1367;DHT22;16877;48.810;9.282;2022-12-18T00:37:32;8.00;42.50
1367;DHT22;16877;48.810;9.282;2022-12-18T00:40:19;8.00;42.60
1367;DHT22;16877;48.810;9.282;2022-12-18T00:42:46;8.00;42.50
1367;DHT22;16877;48.810;9.282;2022-12-18T00:45:24;8.00;42.60
1367;DHT22;16877;48.810;9.282;2022-12-18T00:47:53;8.00;42.50
1367;DHT22;16877;48.810;9.282;2022-12-18T00:50:24;8.00;42.50
1367;DHT22;16877;48.810;9.282;2022-12-18T00:52:53;8.00;42.50
1367;DHT22;16877;48.810;9.282;2022-12-18T00:55:25;8.00;42.60
1367;DHT22;16877;48.810;9.282;2022-12-18T00:58:07;7.90;42.40
1367;DHT22;16877;48.810;9.282;2022-12-18T01:00:40;7.90;42.50
1367;DHT22;16877;48.810;9.282;2022-12-18T01:03:07;7.90;42.50
1367;DHT22;16877;48.810;9.282;2022-12-18T01:05:38;7.90;42.50
1367;DHT22;16877;48.810;9.282;2022-12-18T01:08:08;7.90;42.40
1367;DHT22;16877;48.810;9.282;2022-12-18T01:10:40;7.90;42.40
1367;DHT22;16877;48.810;9.282;2022-12-18T01:13:07;7.90;42.40
1367;DHT22;16877;48.810;9.282;2022-12-18T01:15:40;7.90;42.40
1367;DHT22;16877;48.810;9.282;2022-12-18T01:18:07;7.90;42.50
1367;DHT22;16877;48.810;9.282;2022-12-18T01:20:34;7.90;42.40
1367;DHT22;16877;48.810;9.282;2022-12-18T01:23:02;7.80;42.40
1367;DHT22;16877;48.810;9.282;2022-12-18T01:25:29;7.80;42.50
1367;DHT22;16877;48.810;9.282;2022-12-18T01:27:59;7.80;42.50
1367;DHT22;16877;48.810;9.282;2022-12-18T01:30:30;7.80;42.40
1367;DHT22;16877;48.810;9.282;2022-12-18T01:32:57;7.80;42.40
1367;DHT22;16877;48.810;9.282;2022-12-18T01:35:25;7.80;42.50
1367;DHT22;16877;48.810;9.282;2022-12-18T01:37:54;7.80;42.40
1367;DHT22;16877;48.810;9.282;2022-12-18T01:40:21;7.80;42.40
1367;DHT22;16877;48.810;9.282;2022-12-18T01:42:50;7.80;42.30
1367;DHT22;16877;48.810;9.282;2022-12-18T01:45:34;7.80;42.20
1367;DHT22;16877;48.810;9.282;2022-12-18T01:48:04;7.80;42.20
1367;DHT22;16877;48.810;9.282;2022-12-18T01:50:36;7.80;42.10
1367;DHT22;16877;48.810;9.282;2022-12-18T01:53:07;7.80;42.10
1367;DHT22;16877;48.810;9.282;2022-12-18T01:55:38;7.70;42.00
1367;DHT22;16877;48.810;9.282;2022-12-18T01:58:09;7.70;42.00
1367;DHT22;16877;48.810;9.282;2022-12-18T02:00:39;7.70;42.00
1367;DHT22;16877;48.810;9.282;2022-12-18T02:03:07;7.70;42.00
1367;DHT22;16877;48.810;9.282;2022-12-18T02:05:40;7.70;42.00
1367;DHT22;16877;48.810;9.282;2022-12-18T02:08:12;7.70;42.20
1367;DHT22;16877;48.810;9.282;2022-12-18T02:11:05;7.70;42.20
1367;DHT22;16877;48.810;9.282;2022-12-18T02:13:39;7.60;42.10
1367;DHT22;16877;48.810;9.282;2022-12-18T02:16:13;7.60;42.30
1367;DHT22;16877;48.810;9.282;2022-12-18T02:18:47;7.60;42.20
1367;DHT22;16877;48.810;9.282;2022-12-18T02:21:36;7.60;42.10
1367;DHT22;16877;48.810;9.282;2022-12-18T02:24:17;7.60;42.10
1367;DHT22;16877;48.810;9.282;2022-12-18T02:26:55;7.60;42.10
1367;DHT22;16877;48.810;9.282;2022-12-18T02:29:29;7.60;42.10
1367;DHT22;16877;48.810;9.282;2022-12-18T02:32:07;7.60;42.20
1367;DHT22;16877;48.810;9.282;2022-12-18T02:34:39;7.60;42.20
1367;DHT22;16877;48.810;9.282;2022-12-18T02:37:10;7.60;42.30
1367;DHT22;16877;48.810;9.282;2022-12-18T02:39:41;7.60;42.20
1367;DHT22;16877;48.810;9.282;2022-12-18T02:42:12;7.60;42.10
1367;DHT22;16877;48.810;9.282;2022-12-18T02:44:42;7.60;42.10
1367;DHT22;16877;48.810;9.282;2022-12-18T02:47:11;7.60;42.20
1367;DHT22;16877;48.810;9.282;2022-12-18T02:49:44;7.60;42.10
1367;DHT22;16877;48.810;9.282;2022-12-18T02:52:30;7.60;42.20
1367;DHT22;16877;48.810;9.282;2022-12-18T02:55:07;7.60;42.10
1367;DHT22;16877;48.810;9.282;2022-12-18T02:57:42;7.60;42.10
1367;DHT22;16877;48.810;9.282;2022-12-18T03:00:15;7.60;42.10
1367;DHT22;16877;48.810;9.282;2022-12-18T03:02:50;7.60;42.00
1367;DHT22;16877;48.810;9.282;2022-12-18T03:05:23;7.60;42.10
1367;DHT22;16877;48.810;9.282;2022-12-18T03:07:55;7.60;42.00
1367;DHT22;16877;48.810;9.282;2022-12-18T03:10:27;7.60;42.00
1367;DHT22;16877;48.810;9.282;2022-12-18T03:13:03;7.60;42.00
1367;DHT22;16877;48.810;9.282;2022-12-18T03:15:35;7.50;42.00
1367;DHT22;16877;48.810;9.282;2022-12-18T03:18:20;7.60;42.10
1367;DHT22;16877;48.810;9.282;2022-12-18T03:20:50;7.50;42.00
1367;DHT22;16877;48.810;9.282;2022-12-18T03:23:22;7.50;41.90
1367;DHT22;16877;48.810;9.282;2022-12-18T03:25:52;7.50;41.90
1367;DHT22;16877;48.810;9.282;2022-12-18T03:28:28;7.50;41.90
1367;DHT22;16877;48.810;9.282;2022-12-18T03:31:00;7.50;41.90
1367;DHT22;16877;48.810;9.282;2022-12-18T03:33:32;7.50;41.90
1367;DHT22;16877;48.810;9.282;2022-12-18T03:36:02;7.50;41.90
1367;DHT22;16877;48.810;9.282;2022-12-18T03:38:31;7.50;41.90
1367;DHT22;16877;48.810;9.282;2022-12-18T03:41:04;7.50;41.90
1367;DHT22;16877;48.810;9.282;2022-12-18T03:43:42;7.60;42.00
1367;DHT22;16877;48.810;9.282;2022-12-18T03:46:16;7.50;41.90
1367;DHT22;16877;48.810;9.282;2022-12-18T03:48:51;7.50;41.90
1367;DHT22;16877;48.810;9.282;2022-12-18T03:51:24;7.50;41.80
1367;DHT22;16877;48.810;9.282;2022-12-18T03:54:09;7.50;41.80
1367;DHT22;16877;48.810;9.282;2022-12-18T03:56:42;7.50;41.70
1367;DHT22;16877;48.810;9.282;2022-12-18T03:59:14;7.40;41.60
1367;DHT22;16877;48.810;9.282;2022-12-18T04:01:46;7.40;41.60
1367;DHT22;16877;48.810;9.282;2022-12-18T04:04:16;7.40;41.60
1367;DHT22;16877;48.810;9.282;2022-12-18T04:06:45;7.40;41.60
1367;DHT22;16877;48.810;9.282;2022-12-18T04:09:15;7.40;41.50
1367;DHT22;16877;48.810;9.282;2022-12-18T04:11:43;7.40;41.50
1367;DHT22;16877;48.810;9.282;2022-12-18T04:14:12;7.40;41.60
1367;DHT22;16877;48.810;9.282;2022-12-18T04:16:40;7.40;41.60
1367;DHT22;16877;48.810;9.282;2022-12-18T04:19:07;7.30;41.40
1367;DHT22;16877;48.810;9.282;2022-12-18T04:21:35;7.40;41.50
1367;DHT22;16877;48.810;9.282;2022-12-18T04:24:03;7.30;41.40
1367;DHT22;16877;48.810;9.282;2022-12-18T04:26:31;7.30;41.30
1367;DHT22;16877;48.810;9.282;2022-12-18T04:28:58;7.30;41.30
1367;DHT22;16877;48.810;9.282;2022-12-18T04:31:42;7.30;41.40
1367;DHT22;16877;48.810;9.282;2022-12-18T04:34:11;7.30;41.40
1367;DHT22;16877;48.810;9.282;2022-12-18T04:36:38;7.30;41.40
1367;DHT22;16877;48.810;9.282;2022-12-18T04:39:06;7.20;41.20
1367;DHT22;16877;48.810;9.282;2022-12-18T04:41:35;7.20;41.20
1367;DHT22;16877;48.810;9.282;2022-12-18T04:44:03;7.20;41.20
1367;DHT22;16877;48.810;9.282;2022-12-18T04:46:48;7.20;41.10
1367;DHT22;16877;48.810;9.282;2022-12-18T04:49:16;7.20;41.20
1367;DHT22;16877;48.810;9.282;2022-12-18T04:51:44;7.20;41.20
1367;DHT22;16877;48.810;9.282;2022-12-18T04:54:13;7.20;41.20
1367;DHT22;16877;48.810;9.282;2022-12-18T04:56:40;7.20;41.20
1367;DHT22;16877;48.810;9.282;2022-12-18T04:59:08;7.20;41.30
1367;DHT22;16877;48.810;9.282;2022-12-18T05:01:35;7.10;41.20
1367;DHT22;16877;48.810;9.282;2022-12-18T05:04:04;7.10;41.30
1367;DHT22;16877;48.810;9.282;2022-12-18T05:06:32;7.10;41.30
1367;DHT22;16877;48.810;9.282;2022-12-18T05:08:59;7.10;41.30
1367;DHT22;16877;48.810;9.282;2022-12-18T05:11:41;7.10;41.20
1367;DHT22;16877;48.810;9.282;2022-12-18T05:14:09;7.10;41.10
1367;DHT22;16877;48.810;9.282;2022-12-18T05:16:37;7.10;41.10
1367;DHT22;16877;48.810;9.282;2022-12-18T05:19:06;7.10;41.00
1367;DHT22;16877;48.810;9.282;2022-12-18T05:21:34;7.00;41.00
1367;DHT22;16877;48.810;9.282;2022-12-18T05:24:02;7.00;41.00
1367;DHT22;16877;48.810;9.282;2022-12-18T05:26:29;7.00;41.00
1367;DHT22;16877;48.810;9.282;2022-12-18T05:28:57;7.00;41.00
1367;DHT22;16877;48.810;9.282;2022-12-18T05:31:30;7.00;40.90
1367;DHT22;16877;48.810;9.282;2022-12-18T05:33:58;7.00;40.80
1367;DHT22;16877;48.810;9.282;2022-12-18T05:36:28;7.00;40.90
1367;DHT22;16877;48.810;9.282;2022-12-18T05:38:55;6.90;40.80
1367;DHT22;16877;48.810;9.282;2022-12-18T05:41:23;6.90;40.70
1367;DHT22;16877;48.810;9.282;2022-12-18T05:43:51;6.90;40.80
1367;DHT22;16877;48.810;9.282;2022-12-18T05:46:19;6.90;40.80
1367;DHT22;16877;48.810;9.282;2022-12-18T05:49:02;6.90;40.90
1367;DHT22;16877;48.810;9.282;2022-12-18T05:51:31;6.90;41.00
1367;DHT22;16877;48.810;9.282;2022-12-18T05:53:59;6.90;41.10
1367;DHT22;16877;48.810;9.282;2022-12-18T05:56:26;6.90;41.30
1367;DHT22;16877;48.810;9.282;2022-12-18T05:58:55;6.90;41.40
1367;DHT22;16877;48.810;9.282;2022-12-18T06:01:25;6.90;41.40
1367;DHT22;16877;48.810;9.282;2022-12-18T06:03:53;6.90;41.50
1367;DHT22;16877;48.810;9.282;2022-12-18T06:06:22;6.90;41.60
1367;DHT22;16877;48.810;9.282;2022-12-18T06:08:53;6.90;41.70
1367;DHT22;16877;48.810;9.282;2022-12-18T06:11:23;6.90;41.70
1367;DHT22;16877;48.810;9.282;2022-12-18T06:14:05;6.90;41.70
1367;DHT22;16877;48.810;9.282;2022-12-18T06:16:33;6.90;41.70
1367;DHT22;16877;48.810;9.282;2022-12-18T06:19:03;6.90;41.80
1367;DHT22;16877;48.810;9.282;2022-12-18T06:21:31;6.90;41.60
1367;DHT22;16877;48.810;9.282;2022-12-18T06:24:00;6.90;41.70
1367;DHT22;16877;48.810;9.282;2022-12-18T06:26:28;6.90;41.70
1367;DHT22;16877;48.810;9.282;2022-12-18T06:28:55;6.90;41.80
1367;DHT22;16877;48.810;9.282;2022-12-18T06:31:24;6.90;41.70
1367;DHT22;16877;48.810;9.282;2022-12-18T06:33:51;7.00;41.80
1367;DHT22;16877;48.810;9.282;2022-12-18T06:36:19;7.00;41.80
1367;DHT22;16877;48.810;9.282;2022-12-18T06:38:49;7.00;41.80
1367;DHT22;16877;48.810;9.282;2022-12-18T06:41:23;7.00;41.80
1367;DHT22;16877;48.810;9.282;2022-12-18T06:43:51;6.90;41.70
1367;DHT22;16877;48.810;9.282;2022-12-18T06:46:19;7.00;41.80
1367;DHT22;16877;48.810;9.282;2022-12-18T06:48:48;7.00;41.80
1367;DHT22;16877;48.810;9.282;2022-12-18T06:51:18;7.00;41.90
1367;DHT22;16877;48.810;9.282;2022-12-18T06:54:00;7.00;41.90
1367;DHT22;16877;48.810;9.282;2022-12-18T06:56:31;7.00;41.90
1367;DHT22;16877;48.810;9.282;2022-12-18T06:58:59;7.00;41.80
1367;DHT22;16877;48.810;9.282;2022-12-18T07:01:27;7.00;41.90
1367;DHT22;16877;48.810;9.282;2022-12-18T07:03:59;7.00;41.80
1367;DHT22;16877;48.810;9.282;2022-12-18T07:06:28;7.00;41.80
1367;DHT22;16877;48.810;9.282;2022-12-18T07:08:55;7.00;41.80
1367;DHT22;16877;48.810;9.282;2022-12-18T07:11:23;7.00;41.80
1367;DHT22;16877;48.810;9.282;2022-12-18T07:13:52;7.00;41.80
1367;DHT22;16877;48.810;9.282;2022-12-18T07:16:21;7.00;41.70
1367;DHT22;16877;48.810;9.282;2022-12-18T07:18:48;7.00;41.70
1367;DHT22;16877;48.810;9.282;2022-12-18T07:21:19;7.00;41.60
1367;DHT22;16877;48.810;9.282;2022-12-18T07:23:46;7.00;41.70
1367;DHT22;16877;48.810;9.282;2022-12-18T07:26:15;7.00;41.60
1367;DHT22;16877;48.810;9.282;2022-12-18T07:28:43;7.00;41.70
1367;DHT22;16877;48.810;9.282;2022-12-18T07:31:15;7.10;41.70
1367;DHT22;16877;48.810;9.282;2022-12-18T07:33:48;7.10;41.80
1367;DHT22;16877;48.810;9.282;2022-12-18T07:36:17;7.10;41.70
1367;DHT22;16877;48.810;9.282;2022-12-18T07:38:49;7.20;41.70
1367;DHT22;16877;48.810;9.282;2022-12-18T07:41:26;7.20;41.70
1367;DHT22;16877;48.810;9.282;2022-12-18T07:43:54;7.30;41.90
1367;DHT22;16877;48.810;9.282;2022-12-18T07:46:23;7.40;41.90
1367;DHT22;16877;48.810;9.282;2022-12-18T07:48:51;7.40;41.80
1367;DHT22;16877;48.810;9.282;2022-12-18T07:51:21;7.50;41.90
1367;DHT22;16877;48.810;9.282;2022-12-18T07:54:03;7.50;41.80
1367;DHT22;16877;48.810;9.282;2022-12-18T07:56:31;7.60;41.90
1367;DHT22;16877;48.810;9.282;2022-12-18T07:59:14;7.70;42.00
1367;DHT22;16877;48.810;9.282;2022-12-18T08:01:43;7.80;41.90
1367;DHT22;16877;48.810;9.282;2022-12-18T08:04:25;7.90;42.00
1367;DHT22;16877;48.810;9.282;2022-12-18T08:07:07;8.00;42.00
1367;DHT22;16877;48.810;9.282;2022-12-18T08:09:36;8.10;42.00
1367;DHT22;16877;48.810;9.282;2022-12-18T08:12:14;8.20;42.00
1367;DHT22;16877;48.810;9.282;2022-12-18T08:14:42;8.30;42.00
1367;DHT22;16877;48.810;9.282;2022-12-18T08:17:20;8.50;42.00
1367;DHT22;16877;48.810;9.282;2022-12-18T08:19:48;8.60;42.10
1367;DHT22;16877;48.810;9.282;2022-12-18T08:22:16;8.70;42.10
1367;DHT22;16877;48.810;9.282;2022-12-18T08:24:46;8.80;42.10
1367;DHT22;16877;48.810;9.282;2022-12-18T08:27:14;9.00;42.10
1367;DHT22;16877;48.810;9.282;2022-12-18T08:29:43;9.20;42.10
1367;DHT22;16877;48.810;9.282;2022-12-18T08:32:13;9.30;42.00
1367;DHT22;16877;48.810;9.282;2022-12-18T08:34:43;9.50;42.20
1367;DHT22;16877;48.810;9.282;2022-12-18T08:37:12;9.60;42.30
1367;DHT22;16877;48.810;9.282;2022-12-18T08:39:45;9.80;42.50
1367;DHT22;16877;48.810;9.282;2022-12-18T08:42:13;9.90;42.60
1367;DHT22;16877;48.810;9.282;2022-12-18T08:44:57;10.10;42.50
1367;DHT22;16877;48.810;9.282;2022-12-18T08:47:25;10.70;52.40
1367;DHT22;16877;48.810;9.282;2022-12-18T08:49:54;11.00;50.60
1367;DHT22;16877;48.810;9.282;2022-12-18T08:52:24;11.20;46.40
1367;DHT22;16877;48.810;9.282;2022-12-18T08:54:52;11.30;44.70
1367;DHT22;16877;48.810;9.282;2022-12-18T08:57:21;11.50;44.00
1367;DHT22;16877;48.810;9.282;2022-12-18T08:59:49;11.60;43.50
1367;DHT22;16877;48.810;9.282;2022-12-18T09:02:17;11.70;43.20
1367;DHT22;16877;48.810;9.282;2022-12-18T09:04:46;11.90;43.10
1367;DHT22;16877;48.810;9.282;2022-12-18T09:07:15;12.00;42.80
1367;DHT22;16877;48.810;9.282;2022-12-18T09:09:57;12.20;42.80
1367;DHT22;16877;48.810;9.282;2022-12-18T09:12:26;12.30;42.70
1367;DHT22;16877;48.810;9.282;2022-12-18T09:15:14;12.50;42.70
1367;DHT22;16877;48.810;9.282;2022-12-18T09:17:43;12.70;42.70
1367;DHT22;16877;48.810;9.282;2022-12-18T09:20:25;12.90;42.70
1367;DHT22;16877;48.810;9.282;2022-12-18T09:22:56;13.10;42.80
1367;DHT22;16877;48.810;9.282;2022-12-18T09:25:24;13.20;42.80
1367;DHT22;16877;48.810;9.282;2022-12-18T09:27:57;13.40;42.80
1367;DHT22;16877;48.810;9.282;2022-12-18T09:30:25;13.60;42.90
1367;DHT22;16877;48.810;9.282;2022-12-18T09:32:57;13.70;42.90
1367;DHT22;16877;48.810;9.282;2022-12-18T09:35:25;13.90;42.90
1367;DHT22;16877;48.810;9.282;2022-12-18T09:37:57;14.10;42.80
1367;DHT22;16877;48.810;9.282;2022-12-18T09:40:41;14.30;42.80
1367;DHT22;16877;48.810;9.282;2022-12-18T09:43:15;14.50;42.80
1367;DHT22;16877;48.810;9.282;2022-12-18T09:45:47;14.70;42.70
1367;DHT22;16877;48.810;9.282;2022-12-18T09:48:19;14.90;42.60
1367;DHT22;16877;48.810;9.282;2022-12-18T09:50:49;15.20;42.80
1367;DHT22;16877;48.810;9.282;2022-12-18T09:53:26;15.40;42.50
1367;DHT22;16877;48.810;9.282;2022-12-18T09:55:56;15.60;42.40
1367;DHT22;16877;48.810;9.282;2022-12-18T09:58:37;15.80;42.30
1367;DHT22;16877;48.810;9.282;2022-12-18T10:01:10;16.00;42.10
1367;DHT22;16877;48.810;9.282;2022-12-18T10:03:39;16.30;42.00
1367;DHT22;16877;48.810;9.282;2022-12-18T10:06:23;16.50;41.80
1367;DHT22;16877;48.810;9.282;2022-12-18T10:09:15;16.80;41.70
1367;DHT22;16877;48.810;9.282;2022-12-18T10:11:52;17.20;48.00
1367;DHT22;16877;48.810;9.282;2022-12-18T10:14:25;17.60;44.50
1367;DHT22;16877;48.810;9.282;2022-12-18T10:17:01;17.80;43.20
1367;DHT22;16877;48.810;9.282;2022-12-18T10:19:37;18.10;42.50
1367;DHT22;16877;48.810;9.282;2022-12-18T10:22:30;18.30;41.90
1367;DHT22;16877;48.810;9.282;2022-12-18T10:25:05;18.50;41.60
1367;DHT22;16877;48.810;9.282;2022-12-18T10:27:41;18.70;41.20
1367;DHT22;16877;48.810;9.282;2022-12-18T10:30:13;18.80;40.90
1367;DHT22;16877;48.810;9.282;2022-12-18T10:32:50;19.10;40.80
1367;DHT22;16877;48.810;9.282;2022-12-18T10:35:22;19.30;40.50
1367;DHT22;16877;48.810;9.282;2022-12-18T10:38:06;19.50;40.80
1367;DHT22;16877;48.810;9.282;2022-12-18T10:40:51;19.70;40.10
1367;DHT22;16877;48.810;9.282;2022-12-18T10:43:22;19.90;39.80
1367;DHT22;16877;48.810;9.282;2022-12-18T10:46:24;20.10;39.60
1367;DHT22;16877;48.810;9.282;2022-12-18T10:48:55;20.30;39.20
1367;DHT22;16877;48.810;9.282;2022-12-18T10:51:25;20.40;39.00
1367;DHT22;16877;48.810;9.282;2022-12-18T10:54:07;20.50;38.60
1367;DHT22;16877;48.810;9.282;2022-12-18T10:56:47;20.60;38.50
1367;DHT22;16877;48.810;9.282;2022-12-18T10:59:17;20.70;38.40
1367;DHT22;16877;48.810;9.282;2022-12-18T11:01:48;20.80;38.30
1367;DHT22;16877;48.810;9.282;2022-12-18T11:04:21;20.90;38.10
1367;DHT22;16877;48.810;9.282;2022-12-18T11:07:00;21.00;37.90
1367;DHT22;16877;48.810;9.282;2022-12-18T11:09:32;21.10;37.90
1367;DHT22;16877;48.810;9.282;2022-12-18T11:12:15;21.30;37.70
1367;DHT22;16877;48.810;9.282;2022-12-18T11:14:58;21.40;37.60
1367;DHT22;16877;48.810;9.282;2022-12-18T11:17:28;21.40;37.50
1367;DHT22;16877;48.810;9.282;2022-12-18T11:19:57;21.60;37.50
1367;DHT22;16877;48.810;9.282;2022-12-18T11:22:28;21.70;40.30
1367;DHT22;16877;48.810;9.282;2022-12-18T11:25:18;22.30;48.10
1367;DHT22;16877;48.810;9.282;2022-12-18T11:27:53;22.90;47.80
1367;DHT22;16877;48.810;9.282;2022-12-18T11:30:37;23.50;46.70
1367;DHT22;16877;48.810;9.282;2022-12-18T11:33:22;23.90;46.10
1367;DHT22;16877;48.810;9.282;2022-12-18T11:36:08;24.30;45.50
1367;DHT22;16877;48.810;9.282;2022-12-18T11:38:53;24.60;45.00
1367;DHT22;16877;48.810;9.282;2022-12-18T11:41:28;25.00;44.60
1367;DHT22;16877;48.810;9.282;2022-12-18T11:44:18;25.30;44.20
1367;DHT22;16877;48.810;9.282;2022-12-18T11:46:59;25.50;43.70
1367;DHT22;16877;48.810;9.282;2022-12-18T11:49:48;25.60;43.30
1367;DHT22;16877;48.810;9.282;2022-12-18T11:52:29;25.80;43.00
1367;DHT22;16877;48.810;9.282;2022-12-18T11:55:11;26.00;42.90
1367;DHT22;16877;48.810;9.282;2022-12-18T11:57:50;26.20;41.20
1367;DHT22;16877;48.810;9.282;2022-12-18T12:00:43;26.20;39.50
1367;DHT22;16877;48.810;9.282;2022-12-18T12:03:24;26.10;38.40
1367;DHT22;16877;48.810;9.282;2022-12-18T12:06:02;25.90;40.90
1367;DHT22;16877;48.810;9.282;2022-12-18T12:08:38;25.90;42.50
1367;DHT22;16877;48.810;9.282;2022-12-18T12:11:15;25.80;42.20
1367;DHT22;16877;48.810;9.282;2022-12-18T12:14:14;26.00;41.80
1367;DHT22;16877;48.810;9.282;2022-12-18T12:17:05;26.00;41.30
1367;DHT22;16877;48.810;9.282;2022-12-18T12:19:56;26.00;41.50
1367;DHT22;16877;48.810;9.282;2022-12-18T12:22:35;26.00;41.60
1367;DHT22;16877;48.810;9.282;2022-12-18T12:25:15;26.00;41.70
1367;DHT22;16877;48.810;9.282;2022-12-18T12:27:51;26.00;40.10
1367;DHT22;16877;48.810;9.282;2022-12-18T12:30:24;25.80;38.00
1367;DHT22;16877;48.810;9.282;2022-12-18T12:33:10;25.60;37.00
1367;DHT22;16877;48.810;9.282;2022-12-18T12:35:57;25.30;36.40
1367;DHT22;16877;48.810;9.282;2022-12-18T12:38:31;25.00;35.80
1367;DHT22;16877;48.810;9.282;2022-12-18T12:41:03;24.70;35.40
1367;DHT22;16877;48.810;9.282;2022-12-18T12:43:35;24.50;35.00
1367;DHT22;16877;48.810;9.282;2022-12-18T12:46:06;24.20;34.80
1367;DHT22;16877;48.810;9.282;2022-12-18T12:48:44;23.90;34.70
1367;DHT22;16877;48.810;9.282;2022-12-18T12:51:24;23.70;34.60
1367;DHT22;16877;48.810;9.282;2022-12-18T12:54:01;23.50;34.50
1367;DHT22;16877;48.810;9.282;2022-12-18T12:56:36;23.20;34.60
1367;DHT22;16877;48.810;9.282;2022-12-18T12:59:11;23.10;34.70
1367;DHT22;16877;48.810;9.282;2022-12-18T13:01:49;22.90;34.90
1367;DHT22;16877;48.810;9.282;2022-12-18T13:04:23;22.70;34.90
1367;DHT22;16877;48.810;9.282;2022-12-18T13:06:58;22.50;34.90
1367;DHT22;16877;48.810;9.282;2022-12-18T13:09:30;22.40;34.90
1367;DHT22;16877;48.810;9.282;2022-12-18T13:12:03;22.20;35.00
1367;DHT22;16877;48.810;9.282;2022-12-18T13:14:48;22.10;35.10
1367;DHT22;16877;48.810;9.282;2022-12-18T13:17:31;21.90;35.00
1367;DHT22;16877;48.810;9.282;2022-12-18T13:20:13;21.70;35.00
1367;DHT22;16877;48.810;9.282;2022-12-18T13:22:43;21.60;34.90
1367;DHT22;16877;48.810;9.282;2022-12-18T13:25:34;21.50;35.10
1367;DHT22;16877;48.810;9.282;2022-12-18T13:28:10;21.30;35.00
1367;DHT22;16877;48.810;9.282;2022-12-18T13:30:46;21.20;35.20
1367;DHT22;16877;48.810;9.282;2022-12-18T13:36:31;20.90;35.20
1367;DHT22;16877;48.810;9.282;2022-12-18T13:39:32;20.80;35.30
1367;DHT22;16877;48.810;9.282;2022-12-18T13:42:31;20.60;35.30
1367;DHT22;16877;48.810;9.282;2022-12-18T13:45:39;20.50;35.30
1367;DHT22;16877;48.810;9.282;2022-12-18T13:48:21;20.30;35.40
1367;DHT22;16877;48.810;9.282;2022-12-18T13:50:53;20.20;35.50
1367;DHT22;16877;48.810;9.282;2022-12-18T13:53:42;20.00;35.50
1367;DHT22;16877;48.810;9.282;2022-12-18T13:56:15;19.90;35.50
1367;DHT22;16877;48.810;9.282;2022-12-18T13:58:43;19.80;35.60
1367;DHT22;16877;48.810;9.282;2022-12-18T14:01:22;19.70;35.70
1367;DHT22;16877;48.810;9.282;2022-12-18T14:03:50;19.50;35.70
1367;DHT22;16877;48.810;9.282;2022-12-18T14:06:17;19.50;36.00
1367;DHT22;16877;48.810;9.282;2022-12-18T14:09:02;19.30;35.90
1367;DHT22;16877;48.810;9.282;2022-12-18T14:11:48;19.20;35.90
1367;DHT22;16877;48.810;9.282;2022-12-18T14:14:17;19.10;36.10
1367;DHT22;16877;48.810;9.282;2022-12-18T14:16:45;19.00;36.10
1367;DHT22;16877;48.810;9.282;2022-12-18T14:19:17;18.80;36.20
1367;DHT22;16877;48.810;9.282;2022-12-18T14:21:46;18.60;36.20
1367;DHT22;16877;48.810;9.282;2022-12-18T14:24:18;18.50;36.30
1367;DHT22;16877;48.810;9.282;2022-12-18T14:26:46;18.30;36.10
1367;DHT22;16877;48.810;9.282;2022-12-18T14:29:25;18.20;38.60
1367;DHT22;16877;48.810;9.282;2022-12-18T14:32:07;18.10;40.00
1367;DHT22;16877;48.810;9.282;2022-12-18T14:34:35;18.00;39.00
1367;DHT22;16877;48.810;9.282;2022-12-18T14:37:02;17.90;38.90
1367;DHT22;16877;48.810;9.282;2022-12-18T14:39:31;17.80;39.10
1367;DHT22;16877;48.810;9.282;2022-12-18T14:41:59;17.70;39.10
1367;DHT22;16877;48.810;9.282;2022-12-18T14:44:30;17.50;39.30
1367;DHT22;16877;48.810;9.282;2022-12-18T14:46:58;17.40;39.40
1367;DHT22;16877;48.810;9.282;2022-12-18T14:49:29;17.30;39.50
1367;DHT22;16877;48.810;9.282;2022-12-18T14:52:01;17.10;39.70
1367;DHT22;16877;48.810;9.282;2022-12-18T14:54:32;17.00;39.90
1367;DHT22;16877;48.810;9.282;2022-12-18T14:57:04;16.90;40.10
1367;DHT22;16877;48.810;9.282;2022-12-18T14:59:33;16.70;40.30
1367;DHT22;16877;48.810;9.282;2022-12-18T15:02:09;16.60;40.60
1367;DHT22;16877;48.810;9.282;2022-12-18T15:04:39;16.50;40.80
1367;DHT22;16877;48.810;9.282;2022-12-18T15:07:23;16.30;41.00
1367;DHT22;16877;48.810;9.282;2022-12-18T15:10:09;16.20;41.20
1367;DHT22;16877;48.810;9.282;2022-12-18T15:12:40;16.00;42.80
1367;DHT22;16877;48.810;9.282;2022-12-18T15:18:12;15.60;40.20
1367;DHT22;16877;48.810;9.282;2022-12-18T15:20:44;15.30;38.80
1367;DHT22;16877;48.810;9.282;2022-12-18T15:23:19;15.20;38.90
1367;DHT22;16877;48.810;9.282;2022-12-18T15:25:54;15.00;39.00
1367;DHT22;16877;48.810;9.282;2022-12-18T15:28:24;14.80;39.10
1367;DHT22;16877;48.810;9.282;2022-12-18T15:31:04;14.60;39.20
1367;DHT22;16877;48.810;9.282;2022-12-18T15:33:33;14.50;39.40
1367;DHT22;16877;48.810;9.282;2022-12-18T15:36:02;14.40;39.50
1367;DHT22;16877;48.810;9.282;2022-12-18T15:38:30;14.30;39.50
1367;DHT22;16877;48.810;9.282;2022-12-18T15:40:59;14.10;39.50
1367;DHT22;16877;48.810;9.282;2022-12-18T15:43:33;14.00;39.50
1367;DHT22;16877;48.810;9.282;2022-12-18T15:46:04;13.90;39.60
1367;DHT22;16877;48.810;9.282;2022-12-18T15:48:33;13.80;39.70
1367;DHT22;16877;48.810;9.282;2022-12-18T15:51:01;13.70;39.80
1367;DHT22;16877;48.810;9.282;2022-12-18T15:53:30;13.50;39.70
1367;DHT22;16877;48.810;9.282;2022-12-18T15:56:01;13.40;39.80
1367;DHT22;16877;48.810;9.282;2022-12-18T15:58:45;13.30;39.80
1367;DHT22;16877;48.810;9.282;2022-12-18T16:01:13;13.20;39.80
1367;DHT22;16877;48.810;9.282;2022-12-18T16:03:41;13.10;40.00
1367;DHT22;16877;48.810;9.282;2022-12-18T16:06:09;13.00;40.00
1367;DHT22;16877;48.810;9.282;2022-12-18T16:08:37;12.90;40.10
1367;DHT22;16877;48.810;9.282;2022-12-18T16:11:11;12.80;40.20
1367;DHT22;16877;48.810;9.282;2022-12-18T16:13:43;12.80;40.40
1367;DHT22;16877;48.810;9.282;2022-12-18T16:16:10;12.70;40.50
1367;DHT22;16877;48.810;9.282;2022-12-18T16:18:38;12.60;40.60
1367;DHT22;16877;48.810;9.282;2022-12-18T16:21:20;12.60;40.70
1367;DHT22;16877;48.810;9.282;2022-12-18T16:23:47;12.50;40.80
1367;DHT22;16877;48.810;9.282;2022-12-18T16:26:16;12.40;40.90
1367;DHT22;16877;48.810;9.282;2022-12-18T16:28:44;12.40;41.10
1367;DHT22;16877;48.810;9.282;2022-12-18T16:31:12;12.30;41.10
1367;DHT22;16877;48.810;9.282;2022-12-18T16:33:39;12.30;41.20
1367;DHT22;16877;48.810;9.282;2022-12-18T16:36:08;12.20;41.10
1367;DHT22;16877;48.810;9.282;2022-12-18T16:38:35;12.20;41.20